Terminal Aerodrome Forecast
Issued by NWS Upton, NY

Current Version | Previous Version | Text Only | Print | Product List | Glossary On
Versions: 1 2 3 4 5 6 7 8 9 10 11 12 13 14 15 16 17 18 19 20 21 22 23 24 25 26 27 28 29 30 31 32
000
FTUS41 KOKX 291915 AAA
TAFLGA
TAF AMD
KLGA 291915Z 2919/3018 32007KT P6SM SKC
     FM292000 27008KT P6SM FEW250
     FM292300 21007KT P6SM SCT250
     FM300900 21010KT P6SM OVC100
     FM301100 22012KT P6SM OVC050
     FM301400 24014KT P6SM SCT020 OVC050=

USA.gov is the U.S. government's official web portal to all federal, state and local government web resources and services.